Time;durP1;ratioP1;P1;durP2;ratioP2;P2;SDS_P1;SDS_P2;PMS_P1;PMS_P2;Temp;Humidity;BMP_temperature;BMP_pressure;BME280_temperature;BME280_humidity;BME280_pressure;Samples;Min_cycle;Max_cycle;Signal;HPM_P1;HPM_P2
2022/11/09 00:01:17;;;;;;;7.82;3.40;;;13.30;99.90;;;;;;4947304;29;20477;-73
2022/11/09 00:03:43;;;;;;;8.25;3.70;;;13.40;99.90;;;;;;4951666;29;20071;-73
2022/11/09 00:06:09;;;;;;;7.22;3.60;;;13.40;99.90;;;;;;4953315;29;20031;-73
2022/11/09 00:08:38;;;;;;;6.65;3.70;;;13.30;99.90;;;;;;4946745;28;20031;-73
2022/11/09 00:11:07;;;;;;;7.00;3.67;;;13.40;99.90;;;;;;4951284;29;20047;-75
2022/11/09 00:13:40;;;;;;;5.30;3.65;;;13.30;99.90;;;;;;4949251;29;20090;-74
2022/11/09 00:16:07;;;;;;;7.65;3.80;;;13.30;99.90;;;;;;4945666;28;20647;-75
2022/11/09 00:18:37;;;;;;;9.30;3.70;;;13.30;99.90;;;;;;4949165;29;20043;-75
2022/11/09 00:21:06;;;;;;;9.77;3.78;;;13.30;99.90;;;;;;4935934;29;20043;-75
2022/11/09 00:23:32;;;;;;;8.38;3.70;;;13.20;99.90;;;;;;4949082;29;20086;-74
2022/11/09 00:26:05;;;;;;;6.03;3.40;;;13.30;99.90;;;;;;4948174;28;20066;-75
2022/11/09 00:28:31;;;;;;;6.85;3.60;;;13.20;99.90;;;;;;4952957;28;20442;-75
2022/11/09 00:31:04;;;;;;;8.05;3.78;;;13.30;99.90;;;;;;4945968;29;20496;-76
2022/11/09 00:33:31;;;;;;;9.85;4.10;;;13.20;99.90;;;;;;4950126;29;20039;-75
2022/11/09 00:35:56;;;;;;;6.25;3.95;;;13.20;99.90;;;;;;4956455;28;20673;-74
2022/11/09 00:38:22;;;;;;;8.10;3.60;;;13.30;99.90;;;;;;4955757;29;20121;-73
2022/11/09 00:40:48;;;;;;;6.47;3.80;;;13.30;99.90;;;;;;4951665;29;20500;-73
2022/11/09 00:43:15;;;;;;;7.93;4.47;;;13.30;99.90;;;;;;4954923;29;20076;-73
2022/11/09 00:45:41;;;;;;;9.35;3.47;;;13.30;99.90;;;;;;4956346;28;20047;-74
2022/11/09 00:48:10;;;;;;;7.63;3.70;;;13.20;99.90;;;;;;4943492;29;20039;-73
2022/11/09 00:50:35;;;;;;;10.43;4.13;;;13.30;99.90;;;;;;4947739;29;20043;-73
2022/11/09 00:53:01;;;;;;;6.22;3.65;;;13.30;99.90;;;;;;4954657;29;20059;-73
2022/11/09 00:55:27;;;;;;;7.13;3.42;;;13.30;99.90;;;;;;4955187;28;20050;-75
2022/11/09 00:57:52;;;;;;;9.60;3.78;;;13.30;99.90;;;;;;4944345;29;20032;-75
2022/11/09 01:00:19;;;;;;;8.15;3.45;;;13.40;99.90;;;;;;4927816;29;20046;-75
2022/11/09 01:02:46;;;;;;;7.70;3.30;;;13.40;99.90;;;;;;4954654;29;20043;-75
2022/11/09 01:05:12;;;;;;;9.63;3.85;;;13.40;99.90;;;;;;4944988;29;20045;-77
2022/11/09 01:07:38;;;;;;;7.55;3.80;;;13.40;99.90;;;;;;4954642;29;20081;-73
2022/11/09 01:10:07;;;;;;;10.65;3.60;;;13.50;99.90;;;;;;4956080;28;20069;-73
2022/11/09 01:12:33;;;;;;;8.20;3.67;;;13.50;99.90;;;;;;4954534;29;20051;-73
2022/11/09 01:14:59;;;;;;;7.28;3.35;;;13.50;99.90;;;;;;4947347;29;20426;-73
2022/11/09 01:17:24;;;;;;;5.82;3.75;;;13.50;99.90;;;;;;4954299;29;20046;-73
2022/11/09 01:19:50;;;;;;;7.55;3.83;;;13.50;99.90;;;;;;4954846;29;20122;-75
2022/11/09 01:22:17;;;;;;;6.68;3.78;;;13.50;99.90;;;;;;4941082;29;20039;-76
2022/11/09 01:24:44;;;;;;;7.75;3.65;;;13.50;99.90;;;;;;4953963;29;20051;-76
2022/11/09 01:27:09;;;;;;;10.65;3.83;;;13.50;99.90;;;;;;4955792;28;20043;-73
2022/11/09 01:29:35;;;;;;;6.32;3.47;;;13.50;99.90;;;;;;4948488;29;20035;-73
2022/11/09 01:32:00;;;;;;;7.60;3.40;;;13.40;99.90;;;;;;4947412;29;20117;-75
2022/11/09 01:34:29;;;;;;;6.15;3.22;;;13.50;99.90;;;;;;4954134;29;20045;-75
2022/11/09 01:36:55;;;;;;;9.77;3.30;;;13.40;99.90;;;;;;4948618;29;20035;-75
2022/11/09 01:39:21;;;;;;;7.93;3.00;;;13.40;99.90;;;;;;4941440;29;20513;-73
2022/11/09 01:41:47;;;;;;;5.63;3.33;;;13.50;99.90;;;;;;4951913;28;20043;-73
2022/11/09 01:44:16;;;;;;;6.60;2.83;;;13.50;99.90;;;;;;4955630;28;20071;-73
2022/11/09 01:47:00;;;;;;;7.60;3.00;;;13.70;99.90;;;;;;4939430;29;20442;-74
2022/11/09 01:49:46;;;;;;;8.20;2.95;;;13.70;99.90;;;;;;4950683;29;20035;-73
2022/11/09 01:52:28;;;;;;;6.28;2.90;;;13.60;99.90;;;;;;4934716;29;20048;-75
2022/11/09 01:55:03;;;;;;;6.45;2.80;;;13.70;99.90;;;;;;4941010;28;20047;-75
2022/11/09 01:57:33;;;;;;;6.70;2.90;;;13.80;99.90;;;;;;4945822;29;20039;-75
2022/11/09 02:00:06;;;;;;;6.57;3.05;;;13.80;99.90;;;;;;4953890;29;20050;-75
2022/11/09 02:02:33;;;;;;;10.32;2.97;;;13.80;99.90;;;;;;4955006;28;20576;-74
2022/11/09 02:05:07;;;;;;;9.50;2.75;;;13.70;99.90;;;;;;4939690;29;20046;-74
2022/11/09 02:07:34;;;;;;;6.20;2.67;;;13.70;99.90;;;;;;4954259;29;20110;-74
2022/11/09 02:10:09;;;;;;;7.80;2.88;;;13.60;99.90;;;;;;4938102;29;20059;-74
2022/11/09 02:12:35;;;;;;;12.95;3.78;;;13.60;99.90;;;;;;4945396;29;20048;-74
2022/11/09 02:15:06;;;;;;;7.30;3.20;;;13.60;99.90;;;;;;4953419;29;20509;-74
2022/11/09 02:17:33;;;;;;;;;;;13.60;99.90;;;;;;4953991;29;20054;-73
2022/11/09 02:19:59;;;;;;;6.47;2.97;;;13.50;99.90;;;;;;4951451;29;20396;-73
2022/11/09 02:22:25;;;;;;;5.32;2.70;;;13.50;99.90;;;;;;4945254;29;20517;-73
2022/11/09 02:24:51;;;;;;;7.80;3.00;;;13.40;99.90;;;;;;4953126;28;20043;-74
2022/11/09 02:27:18;;;;;;;9.23;3.15;;;13.40;99.90;;;;;;4953590;29;20548;-74
2022/11/09 02:29:45;;;;;;;8.48;3.13;;;13.50;99.90;;;;;;4943530;29;20125;-74
2022/11/09 02:32:19;;;;;;;8.25;3.05;;;13.40;99.90;;;;;;4949365;29;20043;-74
2022/11/09 02:34:45;;;;;;;7.65;2.88;;;13.40;99.90;;;;;;4953821;28;20175;-74
2022/11/09 02:37:11;;;;;;;7.32;2.88;;;13.30;99.90;;;;;;4937838;29;20554;-73
2022/11/09 02:39:37;;;;;;;6.72;2.95;;;13.30;99.90;;;;;;4950832;29;20517;-73
2022/11/09 02:42:08;;;;;;;6.68;2.60;;;13.20;99.90;;;;;;4959337;28;20127;-74
2022/11/09 02:44:42;;;;;;;5.45;2.72;;;13.20;99.90;;;;;;4951404;28;20047;-73
2022/11/09 02:47:08;;;;;;;7.80;2.80;;;13.30;99.90;;;;;;4937722;29;20502;-74
2022/11/09 02:49:33;;;;;;;6.07;2.83;;;13.20;99.90;;;;;;4950413;29;20043;-75
2022/11/09 02:51:59;;;;;;;7.15;2.60;;;13.30;99.90;;;;;;4952697;28;20406;-75
2022/11/09 02:54:25;;;;;;;6.10;2.30;;;13.20;99.90;;;;;;4948879;29;20382;-75
2022/11/09 02:56:50;;;;;;;8.57;2.63;;;13.20;99.90;;;;;;4945581;29;20414;-75
2022/11/09 02:59:16;;;;;;;9.85;2.75;;;13.10;99.90;;;;;;4954358;29;20038;-74
2022/11/09 03:01:41;;;;;;;9.35;2.70;;;13.20;99.90;;;;;;4948534;29;20119;-74
2022/11/09 03:04:07;;;;;;;10.77;3.22;;;13.20;99.90;;;;;;4950345;28;20044;-74
2022/11/09 03:06:33;;;;;;;9.48;3.03;;;13.20;99.90;;;;;;4952950;29;20086;-76
2022/11/09 03:09:03;;;;;;;6.85;2.72;;;13.10;99.90;;;;;;4952963;29;20043;-74
2022/11/09 03:11:29;;;;;;;8.57;2.97;;;13.10;99.90;;;;;;4945212;29;20546;-76
2022/11/09 03:13:55;;;;;;;8.15;3.00;;;13.20;99.90;;;;;;4945948;29;20079;-74
2022/11/09 03:16:20;;;;;;;8.25;2.85;;;13.20;99.90;;;;;;4953923;28;20118;-74
2022/11/09 03:18:46;;;;;;;8.10;2.95;;;13.10;99.90;;;;;;4947522;29;20062;-74
2022/11/09 03:21:11;;;;;;;9.77;3.10;;;13.10;99.90;;;;;;4948645;29;20035;-74
2022/11/09 03:23:37;;;;;;;6.60;3.03;;;13.00;99.90;;;;;;4936336;29;20401;-76
2022/11/09 03:26:03;;;;;;;8.10;2.80;;;13.00;99.90;;;;;;4953988;29;20454;-75
2022/11/09 03:28:28;;;;;;;9.52;3.10;;;13.00;99.90;;;;;;4940948;29;20108;-74
2022/11/09 03:30:54;;;;;;;5.50;2.92;;;12.90;99.90;;;;;;4952113;29;20098;-75
2022/11/09 03:33:20;;;;;;;5.82;3.00;;;13.00;99.90;;;;;;4953581;29;20082;-76
2022/11/09 03:35:45;;;;;;;6.88;2.80;;;12.90;99.90;;;;;;4945853;28;20044;-75
2022/11/09 03:38:12;;;;;;;6.35;3.03;;;13.00;99.90;;;;;;4952189;29;20032;-75
2022/11/09 03:40:37;;;;;;;5.63;3.10;;;12.90;99.90;;;;;;4952217;29;20631;-76
2022/11/09 03:43:03;;;;;;;6.15;3.13;;;13.00;99.90;;;;;;4948987;29;20047;-75
2022/11/09 03:45:29;;;;;;;7.70;2.90;;;12.90;99.90;;;;;;4940303;29;20035;-73
2022/11/09 03:47:58;;;;;;;9.13;3.22;;;12.90;99.90;;;;;;4952256;29;20043;-74
2022/11/09 03:50:25;;;;;;;8.07;3.00;;;12.90;99.90;;;;;;4936405;29;20047;-76
2022/11/09 03:52:51;;;;;;;10.32;3.33;;;12.80;99.90;;;;;;4940098;29;20059;-75
2022/11/09 03:55:16;;;;;;;9.27;3.28;;;12.80;99.90;;;;;;4953370;28;20027;-75
2022/11/09 03:57:44;;;;;;;7.35;2.92;;;12.80;99.90;;;;;;4953873;29;20490;-73
2022/11/09 04:00:12;;;;;;;10.05;3.03;;;12.80;99.90;;;;;;4952467;28;20039;-73
2022/11/09 04:02:37;;;;;;;8.77;2.72;;;12.90;99.90;;;;;;4947574;29;20435;-75
2022/11/09 04:05:04;;;;;;;10.65;3.33;;;13.00;99.90;;;;;;4954714;28;20113;-75
2022/11/09 04:07:29;;;;;;;10.73;3.08;;;12.90;99.90;;;;;;4956230;29;20057;-75
2022/11/09 04:09:55;;;;;;;6.10;2.92;;;13.10;99.90;;;;;;4951900;29;20410;-74
2022/11/09 04:12:21;;;;;;;8.00;3.20;;;13.20;99.90;;;;;;4952041;29;20038;-75
2022/11/09 04:14:46;;;;;;;7.80;3.00;;;13.20;99.90;;;;;;4955748;28;20557;-74
2022/11/09 04:17:12;;;;;;;6.47;2.63;;;13.20;99.90;;;;;;4952942;29;20441;-76
2022/11/09 04:19:37;;;;;;;9.90;3.22;;;13.20;99.90;;;;;;4947301;29;20028;-74
2022/11/09 04:22:03;;;;;;;10.50;2.97;;;13.20;99.90;;;;;;4952950;29;20398;-75
2022/11/09 04:24:29;;;;;;;9.32;3.53;;;13.20;99.90;;;;;;4948290;29;20049;-73
2022/11/09 04:26:55;;;;;;;5.95;3.10;;;13.20;99.90;;;;;;4937358;29;20077;-74
2022/11/09 04:29:20;;;;;;;5.93;3.00;;;13.20;99.90;;;;;;4950411;29;20040;-73
2022/11/09 04:31:49;;;;;;;6.18;3.00;;;13.20;99.90;;;;;;4953932;29;20508;-73
2022/11/09 04:34:16;;;;;;;7.22;3.20;;;13.10;99.90;;;;;;4947970;29;20055;-74
2022/11/09 04:36:41;;;;;;;6.03;3.22;;;13.10;99.90;;;;;;4953246;29;20042;-74
2022/11/09 04:39:07;;;;;;;7.78;3.22;;;13.10;99.90;;;;;;4955818;29;20039;-74
2022/11/09 04:41:33;;;;;;;6.43;2.90;;;13.00;99.90;;;;;;4950484;29;20082;-75
2022/11/09 04:43:58;;;;;;;6.50;3.08;;;13.00;99.90;;;;;;4947771;29;20039;-72
2022/11/09 04:46:24;;;;;;;7.20;2.90;;;13.00;99.90;;;;;;4956172;28;20077;-73
2022/11/09 04:48:49;;;;;;;9.27;2.85;;;12.90;99.90;;;;;;4955895;29;20039;-73
2022/11/09 04:51:15;;;;;;;6.78;3.67;;;13.00;99.90;;;;;;4944975;29;20047;-73
2022/11/09 04:53:41;;;;;;;8.57;3.20;;;13.00;99.90;;;;;;4953236;29;20061;-73
2022/11/09 04:56:07;;;;;;;7.65;3.15;;;13.00;99.90;;;;;;4955184;29;20071;-73
2022/11/09 04:58:33;;;;;;;9.43;3.65;;;13.10;99.90;;;;;;4951637;29;20039;-73
2022/11/09 05:01:20;;;;;;;8.57;3.30;;;13.10;99.90;;;;;;4955248;28;20046;-73
2022/11/09 05:03:46;;;;;;;7.68;3.13;;;13.00;99.90;;;;;;4954650;29;20050;-73
2022/11/09 05:08:56;;;;;;;6.25;2.85;;;12.90;99.90;;;;;;4947629;29;20133;-73
2022/11/09 05:11:22;;;;;;;6.85;2.70;;;12.80;99.90;;;;;;4950219;29;20534;-73
2022/11/09 05:13:47;;;;;;;7.13;2.72;;;12.90;99.90;;;;;;4954768;29;20131;-73
2022/11/09 05:16:16;;;;;;;7.72;3.17;;;12.80;99.90;;;;;;4979998;23;20126;-66
2022/11/09 05:18:42;;;;;;;8.27;3.10;;;12.90;99.90;;;;;;4949591;28;20042;-66
2022/11/09 05:21:08;;;;;;;7.32;3.40;;;12.80;99.90;;;;;;4955523;29;20039;-66
2022/11/09 05:26:17;;;;;;;6.22;2.90;;;12.70;99.90;;;;;;4937142;29;20055;-66
2022/11/09 05:28:43;;;;;;;7.70;2.92;;;12.80;99.90;;;;;;4935968;29;20044;-66
2022/11/09 05:31:09;;;;;;;6.50;3.20;;;12.70;99.90;;;;;;4936550;29;20110;-66
2022/11/09 05:33:38;;;;;;;10.05;3.13;;;12.80;99.90;;;;;;4919637;29;20110;-66
2022/11/09 05:36:04;;;;;;;9.50;3.13;;;12.80;99.90;;;;;;4934399;29;20071;-66
2022/11/09 05:38:30;;;;;;;8.23;2.95;;;12.80;99.90;;;;;;4936558;29;20155;-66
2022/11/09 05:40:56;;;;;;;7.97;3.25;;;12.80;99.90;;;;;;4927761;29;20036;-66
2022/11/09 05:43:22;;;;;;;7.80;3.03;;;12.80;99.90;;;;;;4925694;29;20067;-66
2022/11/09 05:45:47;;;;;;;6.60;2.78;;;12.80;99.90;;;;;;4933511;29;20043;-66
2022/11/09 05:48:16;;;;;;;6.45;2.78;;;12.70;99.90;;;;;;4914972;29;20390;-66
2022/11/09 05:50:41;;;;;;;10.77;3.42;;;12.60;99.90;;;;;;4933663;29;20047;-67
2022/11/09 05:53:08;;;;;;;12.10;3.08;;;12.70;99.90;;;;;;4935413;29;20131;-66
2022/11/09 05:55:33;;;;;;;10.90;2.75;;;12.60;99.90;;;;;;4936369;29;20123;-66
2022/11/09 05:57:59;;;;;;;6.90;2.83;;;12.60;99.90;;;;;;4921648;29;20140;-66
2022/11/09 06:00:25;;;;;;;10.95;2.97;;;12.50;99.90;;;;;;4928649;29;20040;-66
2022/11/09 06:02:51;;;;;;;9.00;2.90;;;12.50;99.90;;;;;;4928456;29;20040;-65
2022/11/09 06:05:19;;;;;;;6.07;2.15;;;12.50;99.90;;;;;;4926208;29;20044;-66
2022/11/09 06:07:44;;;;;;;8.25;3.35;;;12.50;99.90;;;;;;4930402;29;20082;-67
2022/11/09 06:10:10;;;;;;;7.60;2.50;;;12.50;99.90;;;;;;4933510;29;20063;-66
2022/11/09 06:12:36;;;;;;;10.20;2.50;;;12.50;99.90;;;;;;4920769;29;20470;-66
2022/11/09 06:15:02;;;;;;;7.55;2.60;;;12.60;99.90;;;;;;4922716;29;20379;-67
2022/11/09 06:17:27;;;;;;;8.77;2.97;;;12.60;99.90;;;;;;4935171;29;20041;-66
2022/11/09 06:19:53;;;;;;;7.95;2.40;;;12.50;99.90;;;;;;4923070;29;20039;-66
2022/11/09 06:22:18;;;;;;;5.60;2.15;;;12.50;99.90;;;;;;4924640;29;20040;-66
2022/11/09 06:24:44;;;;;;;8.20;2.58;;;12.50;99.90;;;;;;4934827;29;20438;-66
2022/11/09 06:27:10;;;;;;;8.15;2.40;;;12.40;99.90;;;;;;4935278;29;20039;-66
2022/11/09 06:29:35;;;;;;;7.15;2.72;;;12.30;99.90;;;;;;4935670;29;20479;-66
2022/11/09 06:32:01;;;;;;;9.27;2.75;;;12.30;99.90;;;;;;4928507;29;20495;-66
2022/11/09 06:34:26;;;;;;;9.23;2.70;;;12.30;99.90;;;;;;4927989;29;20096;-66
2022/11/09 06:36:52;;;;;;;8.48;2.70;;;12.30;99.90;;;;;;4928974;29;20032;-66
2022/11/09 06:39:18;;;;;;;5.65;2.28;;;12.30;99.90;;;;;;4926474;29;20040;-66
2022/11/09 06:41:43;;;;;;;10.43;3.13;;;12.20;99.90;;;;;;4933091;29;20058;-67
2022/11/09 06:44:09;;;;;;;11.13;2.53;;;12.30;99.90;;;;;;4935204;29;20040;-67
2022/11/09 06:46:34;;;;;;;7.15;2.60;;;12.30;99.90;;;;;;4928919;29;20495;-66
2022/11/09 06:49:00;;;;;;;7.70;2.97;;;12.20;99.90;;;;;;4926746;29;20036;-66
2022/11/09 06:51:26;;;;;;;9.23;3.10;;;12.20;99.90;;;;;;4934751;29;20042;-66
2022/11/09 06:53:52;;;;;;;9.93;2.83;;;12.20;99.90;;;;;;4935119;29;20047;-66
2022/11/09 06:56:18;;;;;;;10.63;3.25;;;12.10;99.90;;;;;;4923150;29;20044;-66
2022/11/09 06:58:43;;;;;;;7.78;2.65;;;12.10;99.90;;;;;;4928460;29;20044;-66
2022/11/09 07:01:10;;;;;;;7.22;2.35;;;12.00;99.90;;;;;;4931895;29;20039;-67
2022/11/09 07:03:37;;;;;;;9.82;3.10;;;12.00;99.90;;;;;;4929476;29;20035;-66
2022/11/09 07:06:07;;;;;;;10.10;3.17;;;12.00;99.90;;;;;;4926399;29;20043;-66
2022/11/09 07:08:34;;;;;;;12.23;2.70;;;12.10;99.90;;;;;;4934617;29;20125;-65
2022/11/09 07:11:11;;;;;;;11.15;2.90;;;12.10;99.90;;;;;;4934819;29;20031;-65
2022/11/09 07:13:37;;;;;;;8.55;2.65;;;12.20;99.90;;;;;;4930301;29;20082;-65
2022/11/09 07:16:04;;;;;;;8.88;2.80;;;12.10;99.90;;;;;;4934537;29;20050;-65
2022/11/09 07:18:29;;;;;;;12.45;2.85;;;12.10;99.90;;;;;;4934887;29;20497;-65
2022/11/09 07:20:55;;;;;;;11.05;3.45;;;12.10;99.90;;;;;;4921901;29;20752;-65
2022/11/09 07:23:21;;;;;;;9.68;2.75;;;12.10;99.90;;;;;;4922683;29;20063;-65
2022/11/09 07:25:46;;;;;;;12.32;2.90;;;12.10;99.90;;;;;;4934500;29;20044;-65
2022/11/09 07:28:12;;;;;;;8.95;2.60;;;12.20;99.90;;;;;;4927065;29;20045;-65
2022/11/09 07:30:37;;;;;;;9.70;2.90;;;12.20;99.90;;;;;;4921468;29;20083;-65
2022/11/09 07:33:11;;;;;;;11.30;3.35;;;12.20;99.90;;;;;;4928520;29;20063;-65
2022/11/09 07:35:37;;;;;;;13.35;3.28;;;12.20;99.90;;;;;;4933964;29;20494;-65
2022/11/09 07:38:03;;;;;;;9.07;2.55;;;12.30;99.90;;;;;;4931679;29;20075;-65
2022/11/09 07:40:29;;;;;;;11.65;2.90;;;12.20;99.90;;;;;;4925679;29;20067;-66
2022/11/09 07:43:02;;;;;;;9.82;2.78;;;12.20;99.90;;;;;;4924124;29;20126;-67
2022/11/09 07:45:28;;;;;;;7.38;2.90;;;12.40;99.90;;;;;;4925213;29;20099;-67
2022/11/09 07:47:59;;;;;;;11.52;3.30;;;12.40;99.90;;;;;;4921387;29;20098;-67
2022/11/09 07:50:25;;;;;;;11.43;3.35;;;12.40;99.90;;;;;;4933991;29;20039;-66
2022/11/09 07:52:51;;;;;;;11.10;3.20;;;12.50;99.90;;;;;;4934363;29;20075;-66
2022/11/09 07:55:17;;;;;;;10.02;2.80;;;12.50;99.90;;;;;;4920541;29;20070;-66
2022/11/09 07:57:43;;;;;;;8.93;2.90;;;12.50;99.90;;;;;;4932640;29;20052;-66
2022/11/09 08:00:10;;;;;;;7.95;2.70;;;12.50;99.90;;;;;;4934301;29;20086;-66
2022/11/09 08:02:35;;;;;;;10.25;3.00;;;12.50;99.90;;;;;;4927593;29;20043;-67
2022/11/09 08:05:02;;;;;;;13.00;3.28;;;12.50;99.90;;;;;;4933568;29;20510;-66
2022/11/09 08:07:28;;;;;;;5.47;2.72;;;12.50;99.90;;;;;;4934063;29;20044;-67
2022/11/09 08:09:54;;;;;;;11.55;2.55;;;12.60;99.90;;;;;;4934354;29;20406;-67
2022/11/09 08:12:20;;;;;;;11.43;3.00;;;12.60;99.90;;;;;;4930052;29;20043;-66
2022/11/09 08:14:45;;;;;;;13.18;2.95;;;12.60;99.90;;;;;;4931212;29;20509;-66
2022/11/09 08:17:11;;;;;;;11.07;3.00;;;12.70;99.90;;;;;;4933827;29;20040;-66
2022/11/09 08:19:37;;;;;;;10.52;3.00;;;12.70;99.90;;;;;;4923289;29;20040;-67
2022/11/09 08:22:02;;;;;;;10.38;2.60;;;12.70;99.90;;;;;;4930269;29;20047;-67
2022/11/09 08:24:28;;;;;;;9.60;2.90;;;12.80;99.90;;;;;;4933838;29;20047;-66
2022/11/09 08:26:54;;;;;;;10.40;3.22;;;12.70;99.90;;;;;;4925909;29;20119;-66
2022/11/09 08:29:20;;;;;;;8.13;2.63;;;12.70;99.90;;;;;;4925147;29;20135;-66
2022/11/09 08:31:51;;;;;;;12.43;3.10;;;12.70;99.90;;;;;;4929542;29;20036;-66
2022/11/09 08:34:17;;;;;;;12.75;3.00;;;12.80;99.90;;;;;;4931288;29;20486;-66
2022/11/09 08:36:42;;;;;;;13.15;3.10;;;12.90;99.90;;;;;;4916819;29;20139;-66
2022/11/09 08:39:09;;;;;;;12.35;2.85;;;12.90;99.90;;;;;;4923287;29;20043;-67
2022/11/09 08:41:35;;;;;;;11.85;3.25;;;12.90;99.90;;;;;;4929520;29;20127;-67
2022/11/09 08:44:00;;;;;;;13.35;3.42;;;13.00;99.90;;;;;;4931437;29;20043;-67
2022/11/09 08:46:26;;;;;;;10.00;2.92;;;13.00;99.90;;;;;;4927354;29;20099;-66
2022/11/09 08:48:51;;;;;;;8.98;3.30;;;13.10;99.90;;;;;;4923159;29;20040;-66
2022/11/09 08:51:17;;;;;;;11.57;3.00;;;13.10;99.90;;;;;;4934104;29;20431;-66
2022/11/09 08:53:43;;;;;;;14.80;3.47;;;13.20;99.90;;;;;;4927041;29;20048;-66
2022/11/09 08:56:09;;;;;;;13.27;3.22;;;13.10;99.90;;;;;;4937206;29;20031;-66
2022/11/09 08:58:35;;;;;;;12.55;3.10;;;13.20;99.90;;;;;;4937404;29;20067;-66
2022/11/09 09:01:06;;;;;;;10.23;3.22;;;13.20;99.90;;;;;;4926387;29;20071;-67
2022/11/09 09:03:31;;;;;;;10.85;2.95;;;13.20;99.90;;;;;;4930773;29;20513;-67
2022/11/09 09:05:57;;;;;;;11.27;3.22;;;13.20;99.90;;;;;;4932640;29;20119;-67
2022/11/09 09:08:24;;;;;;;9.80;3.25;;;13.20;99.90;;;;;;4920064;29;20049;-67
2022/11/09 09:10:49;;;;;;;8.60;2.97;;;13.30;99.90;;;;;;4927597;29;20044;-67
2022/11/09 09:13:15;;;;;;;9.32;2.92;;;13.40;99.90;;;;;;4936671;29;20047;-67
2022/11/09 09:15:40;;;;;;;10.55;3.13;;;13.50;99.90;;;;;;4936737;29;20048;-66
2022/11/09 09:18:06;;;;;;;13.00;3.20;;;13.50;99.90;;;;;;4927426;29;20050;-67
2022/11/09 09:20:32;;;;;;;10.65;2.85;;;13.50;99.90;;;;;;4932181;29;20077;-66
2022/11/09 09:22:59;;;;;;;11.05;3.08;;;13.60;99.90;;;;;;4918582;29;20072;-66
2022/11/09 09:25:25;;;;;;;9.73;2.75;;;13.60;99.90;;;;;;4919799;29;20577;-67
2022/11/09 09:27:51;;;;;;;16.70;2.97;;;13.80;99.90;;;;;;4929801;29;20490;-67
2022/11/09 09:30:16;;;;;;;12.68;3.28;;;13.80;99.90;;;;;;4934618;29;20119;-67
2022/11/09 09:32:42;;;;;;;9.77;3.03;;;13.80;99.90;;;;;;4931291;29;20056;-66
2022/11/09 09:35:08;;;;;;;10.80;3.40;;;13.90;99.90;;;;;;4928725;29;20039;-67
2022/11/09 09:37:34;;;;;;;11.48;3.58;;;13.90;99.90;;;;;;4931867;29;20450;-67
2022/11/09 09:39:59;;;;;;;10.07;3.13;;;13.90;99.90;;;;;;4931176;29;20499;-67
2022/11/09 09:42:41;;;;;;;10.55;2.60;;;13.90;99.90;;;;;;4927140;29;20039;-67
2022/11/09 09:45:15;;;;;;;11.93;3.05;;;13.90;99.90;;;;;;4929652;29;20479;-67
2022/11/09 09:48:08;;;;;;;10.57;3.60;;;13.90;99.90;;;;;;4926647;29;20507;-66
2022/11/09 09:50:46;;;;;;;12.75;3.65;;;13.90;99.90;;;;;;4922779;29;20043;-66
2022/11/09 09:53:43;;;;;;;10.52;3.03;;;14.00;99.90;;;;;;4930662;29;20494;-67
2022/11/09 09:56:15;;;;;;;9.00;3.40;;;14.00;99.90;;;;;;4930414;29;20039;-67
2022/11/09 09:58:50;;;;;;;9.57;3.38;;;14.10;99.90;;;;;;4916124;29;20036;-67
2022/11/09 10:01:19;;;;;;;9.25;3.30;;;14.20;99.90;;;;;;4925642;29;20546;-67
2022/11/09 10:03:46;;;;;;;8.35;3.28;;;14.10;99.90;;;;;;4935070;29;20048;-67
2022/11/09 10:06:39;;;;;;;10.27;3.63;;;14.10;99.90;;;;;;4928470;29;20534;-67
2022/11/09 10:09:45;;;;;;;9.55;3.60;;;14.10;99.90;;;;;;4924704;29;20043;-67
2022/11/09 10:12:37;;;;;;;9.15;3.15;;;14.10;99.90;;;;;;4929671;29;20491;-67
2022/11/09 10:15:09;;;;;;;9.05;3.70;;;14.10;99.90;;;;;;4928346;29;20040;-67
2022/11/09 10:17:44;;;;;;;10.05;4.43;;;14.00;99.90;;;;;;4927061;29;20047;-67
2022/11/09 10:20:30;;;;;;;11.40;3.83;;;14.00;99.90;;;;;;4935362;29;20038;-67
2022/11/09 10:23:20;;;;;;;7.15;3.47;;;14.10;99.90;;;;;;4929113;29;20046;-67
2022/11/09 10:25:53;;;;;;;8.18;3.55;;;14.00;99.90;;;;;;4928051;29;20087;-67
2022/11/09 10:28:24;;;;;;;9.98;3.65;;;14.00;99.90;;;;;;4935315;29;20409;-67
2022/11/09 10:30:50;;;;;;;;;;;14.00;99.90;;;;;;4924052;29;20071;-67
2022/11/09 10:33:20;;;;;;;11.02;3.72;;;14.00;99.90;;;;;;4921046;29;19969;-67
2022/11/09 10:36:00;;;;;;;10.20;3.40;;;14.10;99.90;;;;;;4932938;29;20561;-67
2022/11/09 10:38:35;;;;;;;9.35;3.38;;;14.10;99.90;;;;;;4935211;29;20040;-67
2022/11/09 10:41:13;;;;;;;9.88;3.65;;;14.20;99.90;;;;;;4930928;29;20035;-66
2022/11/09 10:43:38;;;;;;;13.07;3.50;;;14.10;99.90;;;;;;4919746;29;20075;-66
2022/11/09 10:46:06;;;;;;;11.75;4.15;;;14.10;99.90;;;;;;4933548;29;20082;-66
2022/11/09 10:48:37;;;;;;;12.25;3.55;;;14.00;99.90;;;;;;4929464;29;20038;-66
2022/11/09 10:51:03;;;;;;;10.93;3.20;;;14.00;99.90;;;;;;4920629;29;20099;-66
2022/11/09 10:53:32;;;;;;;11.23;3.55;;;14.10;99.90;;;;;;4931631;29;20123;-67
2022/11/09 10:56:14;;;;;;;7.95;3.08;;;14.20;99.90;;;;;;4934170;29;20099;-66
2022/11/09 10:58:51;;;;;;;10.38;3.25;;;14.40;99.90;;;;;;4931958;29;20036;-66
2022/11/09 11:01:21;;;;;;;10.10;2.83;;;14.40;99.90;;;;;;4934063;29;20456;-66
2022/11/09 11:03:52;;;;;;;6.43;2.88;;;14.40;99.90;;;;;;4927988;29;20562;-66
2022/11/09 11:06:21;;;;;;;21.42;3.28;;;14.40;99.90;;;;;;4920595;29;20157;-66
2022/11/09 11:09:00;;;;;;;12.18;3.00;;;14.40;99.90;;;;;;4934505;29;20040;-66
2022/11/09 11:11:31;;;;;;;11.45;3.08;;;14.40;99.90;;;;;;4923118;29;20635;-67
2022/11/09 11:14:09;;;;;;;9.88;3.00;;;14.40;99.90;;;;;;4926776;29;20054;-66
2022/11/09 11:16:36;;;;;;;13.88;3.25;;;14.60;99.90;;;;;;4934491;29;20044;-66
2022/11/09 11:19:02;;;;;;;11.30;3.00;;;14.60;99.90;;;;;;4927848;29;20491;-66
2022/11/09 11:21:29;;;;;;;8.55;3.00;;;14.70;99.90;;;;;;4922887;29;20111;-66
2022/11/09 11:24:13;;;;;;;8.32;2.72;;;14.70;99.90;;;;;;4933718;29;20502;-67
2022/11/09 11:26:41;;;;;;;9.60;3.20;;;14.60;99.90;;;;;;4928298;29;20051;-67
2022/11/09 11:29:49;;;;;;;9.27;3.35;;;14.60;99.90;;;;;;4927944;29;20040;-68
2022/11/09 11:32:18;;;;;;;7.80;2.80;;;14.50;99.90;;;;;;4912255;29;20062;-67
2022/11/09 11:34:44;;;;;;;10.23;3.08;;;14.50;99.90;;;;;;4932263;29;20530;-68
2022/11/09 11:37:19;;;;;;;11.52;2.85;;;14.50;99.90;;;;;;4928240;29;20032;-68
2022/11/09 11:39:50;;;;;;;10.95;3.20;;;14.50;99.90;;;;;;4927222;29;20051;-67
2022/11/09 11:42:29;;;;;;;6.40;2.80;;;14.50;99.90;;;;;;4934593;29;20043;-67
2022/11/09 11:45:14;;;;;;;8.60;2.97;;;14.40;99.90;;;;;;4918854;29;20434;-68
2022/11/09 11:47:50;;;;;;;9.77;3.00;;;14.30;99.90;;;;;;4919178;29;20145;-64
2022/11/09 11:50:43;;;;;;;11.30;2.88;;;14.30;99.90;;;;;;4936597;29;20040;-68
2022/11/09 11:53:27;;;;;;;6.97;2.80;;;14.30;99.90;;;;;;4932669;29;20040;-67
2022/11/09 11:56:10;;;;;;;11.25;2.78;;;14.20;99.90;;;;;;4927166;29;20066;-68
2022/11/09 11:58:39;;;;;;;9.32;2.50;;;14.20;99.90;;;;;;4928891;29;20403;-67
2022/11/09 12:01:13;;;;;;;10.05;2.67;;;14.10;99.90;;;;;;4936893;29;20044;-67
2022/11/09 12:04:10;;;;;;;10.00;2.92;;;14.10;99.90;;;;;;4933408;29;20131;-68
2022/11/09 12:07:10;;;;;;;9.65;2.40;;;14.20;99.90;;;;;;4926318;29;20063;-66
2022/11/09 12:10:01;;;;;;;8.88;2.47;;;14.50;99.90;;;;;;4937364;29;20044;-67
2022/11/09 12:12:40;;;;;;;7.65;2.55;;;14.60;99.90;;;;;;4927371;29;20410;-67
2022/11/09 12:15:33;;;;;;;8.75;2.58;;;14.60;99.90;;;;;;4930143;29;20079;-67
2022/11/09 12:18:04;;;;;;;10.13;2.65;;;14.50;99.90;;;;;;4917325;29;20474;-68
2022/11/09 12:20:34;;;;;;;;;;;14.50;99.90;;;;;;4921510;29;20063;-69
2022/11/09 12:23:15;;;;;;;9.60;2.67;;;14.60;99.90;;;;;;4933125;29;19966;-68
2022/11/09 12:26:22;;;;;;;5.38;2.28;;;14.60;99.90;;;;;;4938965;29;20046;-68
2022/11/09 12:29:16;;;;;;;12.55;2.55;;;14.50;99.90;;;;;;4891839;29;20055;-68
2022/11/09 12:31:53;;;;;;;9.23;3.13;;;14.50;99.90;;;;;;4933168;29;20147;-67
2022/11/09 12:34:38;;;;;;;10.85;2.70;;;14.60;99.90;;;;;;4944028;29;20097;-67
2022/11/09 12:37:13;;;;;;;8.27;2.58;;;14.60;99.90;;;;;;4934194;29;20123;-67
2022/11/09 12:39:45;;;;;;;11.05;3.10;;;14.50;99.90;;;;;;4926020;29;20111;-69
2022/11/09 12:42:22;;;;;;;9.23;2.38;;;14.50;99.90;;;;;;4939185;29;20103;-66
2022/11/09 12:45:03;;;;;;;9.65;2.83;;;14.50;99.90;;;;;;4938953;29;20507;-67
2022/11/09 12:47:34;;;;;;;6.70;2.30;;;14.50;99.90;;;;;;4938862;29;20091;-67
2022/11/09 12:50:00;;;;;;;7.35;2.50;;;14.40;99.90;;;;;;4941642;29;20057;-67
2022/11/09 12:52:27;;;;;;;6.63;2.67;;;14.30;99.90;;;;;;4941439;29;20040;-68
2022/11/09 12:54:54;;;;;;;8.45;2.45;;;14.40;99.90;;;;;;4934556;29;20067;-67
2022/11/09 12:57:28;;;;;;;9.65;2.90;;;14.60;99.90;;;;;;4935956;29;20498;-67
2022/11/09 12:59:59;;;;;;;9.93;2.33;;;14.60;99.90;;;;;;4934045;29;20483;-68
2022/11/09 13:02:36;;;;;;;7.75;2.70;;;14.50;99.90;;;;;;4931868;29;20107;-68